메인 페이지
METAR-TAF:

METAR-TAF

공항 :

산타크루스, 리우데자네이루, 브라질

위도: 22-56S, 경도: 043-43W, 고도: 3m

현재 날씨관측

예보는 1 시간 17분 전, 15:00시(UTC)에 발표되었습니다.
남남동9kt
온도 31°C
습도 71%
기압 1018 hPa
시정 10km 이상
고도 1600ft 상공 구름 보통

METAR: SBSC 251500Z 15009KT 9999 SCT016 31/25 Q1018

시각: 13:17 (16:17 UTC)

예보

예보는 7 시간 17분 전, 09:00시(UTC)에 발표되었습니다.
예보 대상 시간: 25일 12시부터 25일 24시까지 (UTC)
북서7kt
시정 10km 이상
1500m 미만 상공 구름 및 적란운 없음
전환 중
25일 13시부터 25일 15시까지 (UTC)
시정 10km 이상
고도 3000ft 상공 구름 보통
전환 중
25일 19시부터 25일 21시까지 (UTC)
고도 3000ft 상공 구름 보통
고도 4000ft 상공 구름 조금, 타워링 적운.
일시적
25일 21시부터 25일 22시까지 (UTC)
시정: 6000m
고도 3000ft 상공 구름 보통
고도 4000ft 상공 구름 조금, 적란운.
뇌우, 비

TAF: SBSC 250900Z 2512/2524 31007KT CAVOK TN24/2512Z TX25/2517Z BECMG 2513/2515 9999 SCT030 BECMG 2519/2521 SCT030 FEW040TCU TEMPO 2521/2522 6000 TSRA SCT030 FEW040CB RMK PEN

4,000개 이상의 공항 관측 자료 및 예보 (METAR 및 TAF 보고).

지도상에서 검색 가능한 기상관측소가 노란 점과 빨간 점으로 표시되어 있습니다.

기상관측소 명을 보려면 표시 위로 마우스를 이동하세요.

날씨 관측과 예보를 보려면 클릭하세요.

지도 변경 : 확대하려면 엑스 표시가 있는 녹색 버튼, 축소하려면 빼기 표시가 있는 녹색 버튼, 다음 페이지의 지도를 보려면 녹색 화살표를 클릭하세요.


METAR-TAF: